createdAt,value
2023-11-16T00:01:39.215Z,83.81
2023-11-16T00:04:07.710Z,83.67
2023-11-16T00:06:35.346Z,83.98
2023-11-16T00:09:03.051Z,84.00
2023-11-16T00:11:30.954Z,84.46
2023-11-16T00:13:58.576Z,84.34
2023-11-16T00:16:26.591Z,84.15
2023-11-16T00:18:55.554Z,84.22
2023-11-16T00:21:22.931Z,84.25
2023-11-16T00:23:51.214Z,84.28
2023-11-16T00:26:20.595Z,84.38
2023-11-16T00:28:56.444Z,84.37
2023-11-16T00:31:24.863Z,84.35
2023-11-16T00:33:52.446Z,84.34
2023-11-16T00:36:24.565Z,84.25
2023-11-16T00:38:53.006Z,84.43
2023-11-16T00:41:20.565Z,84.27
2023-11-16T00:43:49.468Z,84.27
2023-11-16T00:46:19.674Z,84.33
2023-11-16T00:48:47.353Z,84.03
2023-11-16T00:51:15.743Z,84.03
2023-11-16T00:53:45.951Z,83.71
2023-11-16T00:56:15.198Z,83.87
2023-11-16T00:58:46.212Z,83.41
2023-11-16T01:01:19.383Z,83.50
2023-11-16T01:03:47.612Z,83.62
2023-11-16T01:06:15.006Z,83.29
2023-11-16T01:08:42.616Z,83.04
2023-11-16T01:11:10.553Z,83.01
2023-11-16T01:13:40.741Z,82.52
2023-11-16T01:16:17.477Z,82.23
2023-11-16T01:18:51.632Z,82.31
2023-11-16T01:21:20.980Z,82.41
2023-11-16T01:23:49.665Z,82.86
2023-11-16T01:26:18.513Z,83.01
2023-11-16T01:28:51.014Z,83.01
2023-11-16T01:31:21.065Z,83.61
2023-11-16T01:33:48.961Z,83.23
2023-11-16T01:36:16.488Z,83.36
2023-11-16T01:38:44.466Z,83.49
2023-11-16T01:41:11.731Z,82.91
2023-11-16T01:43:39.220Z,83.22
2023-11-16T01:46:07.572Z,83.64
2023-11-16T01:48:37.783Z,83.68
2023-11-16T01:51:06.903Z,83.55
2023-11-16T01:53:39.303Z,83.53
2023-11-16T01:56:08.813Z,83.76
2023-11-16T01:58:36.847Z,83.70
2023-11-16T02:01:05.694Z,83.75
2023-11-16T02:03:34.643Z,83.79
2023-11-16T02:06:05.340Z,84.04
2023-11-16T02:08:39.145Z,83.98
2023-11-16T02:11:07.285Z,83.83
2023-11-16T02:13:35.601Z,83.77
2023-11-16T02:16:05.803Z,83.65
2023-11-16T02:18:35.153Z,83.78
2023-11-16T02:21:05.095Z,84.02
2023-11-16T02:23:35.602Z,84.45
2023-11-16T02:26:02.956Z,84.59
2023-11-16T02:28:31.842Z,84.75
2023-11-16T02:31:01.491Z,84.84
2023-11-16T02:33:29.221Z,84.81
2023-11-16T02:35:58.990Z,84.89
2023-11-16T02:38:26.686Z,84.67
2023-11-16T02:40:54.074Z,84.83
2023-11-16T02:43:23.253Z,84.72
2023-11-16T02:45:52.526Z,84.25
2023-11-16T02:48:20.125Z,84.74
2023-11-16T02:50:47.531Z,84.47
2023-11-16T02:53:14.886Z,84.73
2023-11-16T02:55:42.158Z,84.52
2023-11-16T02:58:09.616Z,84.57
2023-11-16T03:00:37.193Z,84.87
2023-11-16T03:03:07.096Z,85.39
2023-11-16T03:05:34.682Z,85.27
2023-11-16T03:08:02.394Z,85.34
2023-11-16T03:10:30.340Z,85.47
2023-11-16T03:12:58.190Z,86.03
2023-11-16T03:15:27.607Z,85.69
2023-11-16T03:17:57.886Z,86.05
2023-11-16T03:20:27.625Z,86.10
2023-11-16T03:22:55.200Z,86.21
2023-11-16T03:25:22.680Z,86.33
2023-11-16T03:27:49.979Z,86.67
2023-11-16T03:30:18.081Z,86.47
2023-11-16T03:32:47.171Z,87.04
2023-11-16T03:35:16.898Z,87.13
2023-11-16T03:37:47.432Z,86.89
2023-11-16T03:40:14.837Z,87.41
2023-11-16T03:42:42.724Z,87.48
2023-11-16T03:45:12.858Z,87.24
2023-11-16T03:47:41.572Z,86.96
2023-11-16T03:50:10.493Z,86.95
2023-11-16T03:52:38.034Z,86.49
2023-11-16T03:55:05.836Z,86.21
2023-11-16T03:57:33.951Z,86.03
2023-11-16T04:00:01.376Z,85.40
2023-11-16T04:02:31.870Z,84.96
2023-11-16T04:04:59.804Z,85.03
2023-11-16T04:07:27.395Z,84.63
2023-11-16T04:09:55.323Z,84.80
2023-11-16T04:12:24.474Z,84.05
2023-11-16T04:14:52.342Z,83.93
2023-11-16T04:17:22.644Z,83.13
2023-11-16T04:19:50.829Z,82.91
2023-11-16T04:22:18.186Z,82.98
2023-11-16T04:24:46.053Z,83.45
2023-11-16T04:27:15.444Z,82.61
2023-11-16T04:29:44.166Z,82.84
2023-11-16T04:32:12.958Z,82.56
2023-11-16T04:34:43.518Z,83.23
2023-11-16T04:37:12.234Z,82.82
2023-11-16T04:39:39.692Z,83.21
2023-11-16T04:42:07.272Z,83.05
2023-11-16T04:44:35.931Z,82.37
2023-11-16T04:47:03.786Z,82.01
2023-11-16T04:49:31.139Z,81.85
2023-11-16T04:51:58.996Z,81.43
2023-11-16T04:54:27.891Z,80.74
2023-11-16T04:56:55.288Z,80.76
2023-11-16T04:59:22.712Z,81.00
2023-11-16T05:01:50.154Z,81.44
2023-11-16T05:04:18.251Z,81.87
2023-11-16T05:06:45.870Z,82.25
2023-11-16T05:09:14.499Z,82.41
2023-11-16T05:11:41.750Z,82.51
2023-11-16T05:14:09.278Z,82.49
2023-11-16T05:16:36.936Z,82.67
2023-11-16T05:19:04.409Z,82.87
2023-11-16T05:21:32.175Z,82.90
2023-11-16T05:23:59.480Z,82.59
2023-11-16T05:26:27.193Z,82.23
2023-11-16T05:28:55.134Z,82.23
2023-11-16T05:31:22.907Z,81.30
2023-11-16T05:33:50.751Z,80.61
2023-11-16T05:36:19.845Z,79.78
2023-11-16T05:38:47.171Z,79.59
2023-11-16T05:41:14.880Z,79.18
2023-11-16T05:43:42.724Z,79.18
2023-11-16T05:46:10.246Z,78.96
2023-11-16T05:48:37.601Z,79.27
2023-11-16T05:51:06.228Z,79.08
2023-11-16T05:53:35.180Z,79.16
2023-11-16T05:56:02.586Z,79.51
2023-11-16T05:58:30.256Z,79.46
2023-11-16T06:00:57.754Z,79.63
2023-11-16T06:03:29.290Z,79.88
2023-11-16T06:05:58.753Z,79.98
2023-11-16T06:08:26.214Z,80.29
2023-11-16T06:10:53.847Z,80.63
2023-11-16T06:13:24.061Z,80.69
2023-11-16T06:15:51.610Z,80.81
2023-11-16T06:18:19.258Z,80.99
2023-11-16T06:20:47.030Z,80.67
2023-11-16T06:23:14.700Z,80.78
2023-11-16T06:25:41.921Z,80.66
2023-11-16T06:28:11.831Z,80.03
2023-11-16T06:30:40.571Z,80.09
2023-11-16T06:33:08.250Z,79.74
2023-11-16T06:35:35.666Z,79.62
2023-11-16T06:38:04.544Z,79.59
2023-11-16T06:40:31.788Z,79.20
2023-11-16T06:43:01.422Z,78.99
2023-11-16T06:45:30.714Z,79.32
2023-11-16T06:48:02.156Z,79.08
2023-11-16T06:50:29.919Z,79.08
2023-11-16T06:52:57.258Z,78.85
2023-11-16T06:55:26.593Z,78.54
2023-11-16T06:57:53.857Z,78.26
2023-11-16T07:00:23.204Z,77.66
2023-11-16T07:02:50.826Z,76.91
2023-11-16T07:05:18.283Z,75.70
2023-11-16T07:07:47.009Z,75.63
2023-11-16T07:10:17.357Z,75.25
2023-11-16T07:12:47.369Z,75.33
2023-11-16T07:15:16.495Z,74.85
2023-11-16T07:17:44.933Z,74.70
2023-11-16T07:20:13.210Z,74.37
2023-11-16T07:22:45.490Z,74.11
2023-11-16T07:25:15.126Z,73.80
2023-11-16T07:27:42.754Z,73.72
2023-11-16T07:30:11.546Z,72.87
2023-11-16T07:32:39.247Z,72.74
2023-11-16T07:35:16.898Z,73.49
2023-11-16T07:37:48.812Z,72.87
2023-11-16T07:40:19.520Z,72.40
2023-11-16T07:42:48.486Z,70.91
2023-11-16T07:45:16.938Z,71.81
2023-11-16T07:47:46.696Z,71.35
2023-11-16T07:50:15.148Z,72.38
2023-11-16T07:52:44.981Z,72.43
2023-11-16T07:55:18.375Z,72.59
2023-11-16T07:57:50.245Z,73.13
2023-11-16T08:00:36.043Z,74.18
2023-11-16T08:03:22.196Z,74.32
2023-11-16T08:05:52.299Z,73.78
2023-11-16T08:08:22.190Z,71.99
2023-11-16T08:10:51.222Z,71.98
2023-11-16T08:13:20.004Z,71.99
2023-11-16T08:15:55.276Z,72.50
2023-11-16T08:18:23.646Z,72.61
2023-11-16T08:20:50.909Z,72.44
2023-11-16T08:23:19.546Z,72.63
2023-11-16T08:25:49.446Z,72.41
2023-11-16T08:28:18.408Z,72.46
2023-11-16T08:30:46.890Z,72.77
2023-11-16T08:33:16.290Z,72.20
2023-11-16T08:35:43.552Z,72.74
2023-11-16T08:38:15.848Z,72.74
2023-11-16T08:40:44.839Z,72.77
2023-11-16T08:43:12.597Z,73.09
2023-11-16T08:45:43.649Z,72.85
2023-11-16T08:48:12.663Z,72.99
2023-11-16T08:50:44.397Z,72.92
2023-11-16T08:53:14.622Z,72.80
2023-11-16T08:55:42.477Z,72.79
2023-11-16T08:58:10.200Z,73.05
2023-11-16T09:00:39.575Z,73.33
2023-11-16T09:03:09.789Z,73.44
2023-11-16T09:05:40.943Z,73.39
2023-11-16T09:08:13.667Z,73.38
2023-11-16T09:10:43.593Z,73.71
2023-11-16T09:13:14.095Z,74.84
2023-11-16T09:15:42.794Z,74.97
2023-11-16T09:18:13.104Z,74.63
2023-11-16T09:20:47.744Z,73.97
2023-11-16T09:23:16.385Z,73.34
2023-11-16T09:25:44.773Z,73.92
2023-11-16T09:28:15.356Z,73.88
2023-11-16T09:30:45.113Z,73.52
2023-11-16T09:33:13.973Z,73.89
2023-11-16T09:35:51.531Z,73.66
2023-11-16T09:38:20.095Z,73.80
2023-11-16T09:40:48.776Z,74.32
2023-11-16T09:43:19.509Z,74.84
2023-11-16T09:45:49.664Z,74.50
2023-11-16T09:48:19.073Z,74.56
2023-11-16T09:50:46.877Z,74.83
2023-11-16T09:53:15.780Z,74.99
2023-11-16T09:55:51.515Z,76.38
2023-11-16T09:58:25.287Z,76.94
2023-11-16T10:01:06.458Z,77.06
2023-11-16T10:03:38.431Z,77.22
2023-11-16T10:06:11.690Z,77.00
2023-11-16T10:08:43.220Z,77.15
2023-11-16T10:11:10.877Z,76.61
2023-11-16T10:13:38.903Z,76.80
2023-11-16T10:16:11.653Z,75.97
2023-11-16T10:18:41.460Z,75.40
2023-11-16T10:21:10.385Z,75.01
2023-11-16T10:23:38.505Z,75.34
2023-11-16T10:26:08.148Z,75.89
2023-11-16T10:28:36.314Z,75.79
2023-11-16T10:31:04.964Z,75.79
2023-11-16T10:33:33.034Z,75.91
2023-11-16T10:36:03.499Z,75.79
2023-11-16T10:38:34.230Z,75.55
2023-11-16T10:41:04.571Z,75.43
2023-11-16T10:43:32.119Z,75.73
2023-11-16T10:46:01.746Z,75.66
2023-11-16T10:48:30.336Z,75.90
2023-11-16T10:51:01.669Z,75.83
2023-11-16T10:53:39.664Z,75.60
2023-11-16T10:56:13.183Z,75.93
2023-11-16T10:58:44.651Z,75.73
2023-11-16T11:01:19.009Z,75.88
2023-11-16T11:03:50.200Z,75.96
2023-11-16T11:06:21.562Z,75.68
2023-11-16T11:08:50.668Z,74.85
2023-11-16T11:11:28.865Z,74.85
2023-11-16T11:14:00.961Z,74.86
2023-11-16T11:16:29.886Z,75.17
2023-11-16T11:18:59.571Z,75.23
2023-11-16T11:21:32.387Z,75.13
2023-11-16T11:24:08.089Z,75.44
2023-11-16T11:26:41.040Z,75.42
2023-11-16T11:29:12.174Z,75.32
2023-11-16T11:31:48.669Z,75.80
2023-11-16T11:34:17.057Z,75.74
2023-11-16T11:36:45.885Z,75.87
2023-11-16T11:39:16.488Z,75.50
2023-11-16T11:42:01.154Z,75.84
2023-11-16T11:44:30.278Z,75.79
2023-11-16T11:46:58.554Z,75.74
2023-11-16T11:49:26.999Z,76.02
2023-11-16T11:51:55.373Z,75.98
2023-11-16T11:54:35.318Z,75.96
2023-11-16T11:57:06.812Z,74.73
2023-11-16T11:59:37.818Z,73.93
2023-11-16T12:02:08.897Z,73.73
2023-11-16T12:04:38.880Z,73.79
2023-11-16T12:07:10.132Z,73.96
2023-11-16T12:09:39.900Z,73.83
2023-11-16T12:12:09.554Z,74.21
2023-11-16T12:14:49.707Z,74.61
2023-11-16T12:17:22.881Z,74.95
2023-11-16T12:19:55.775Z,75.53
2023-11-16T12:22:30.945Z,75.99
2023-11-16T12:25:05.453Z,76.25
2023-11-16T12:27:41.519Z,77.02
2023-11-16T12:30:22.725Z,77.17
2023-11-16T12:32:52.735Z,77.52
2023-11-16T12:35:24.159Z,77.36
2023-11-16T12:37:56.368Z,77.16
2023-11-16T12:40:24.717Z,77.71
2023-11-16T12:42:57.306Z,77.76
2023-11-16T12:45:31.320Z,77.38
2023-11-16T12:48:03.034Z,77.50
2023-11-16T12:50:44.784Z,77.31
2023-11-16T12:53:15.283Z,77.28
2023-11-16T12:55:47.290Z,77.42
2023-11-16T12:58:17.601Z,77.78
2023-11-16T13:00:46.709Z,78.15
2023-11-16T13:03:18.136Z,77.98
2023-11-16T13:05:47.729Z,78.37
2023-11-16T13:08:24.535Z,78.26
2023-11-16T13:10:54.525Z,78.40
2023-11-16T13:13:25.853Z,77.91
2023-11-16T13:16:00.899Z,77.45
2023-11-16T13:18:32.390Z,77.44
2023-11-16T13:21:07.194Z,77.59
2023-11-16T13:23:48.176Z,77.61
2023-11-16T13:26:17.390Z,78.05
2023-11-16T13:28:48.140Z,78.17
2023-11-16T13:31:21.265Z,78.41
2023-11-16T13:33:53.310Z,78.01
2023-11-16T13:36:24.345Z,78.15
2023-11-16T13:39:00.015Z,77.85
2023-11-16T13:41:32.164Z,77.76
2023-11-16T13:44:06.790Z,77.72
2023-11-16T13:46:39.022Z,77.75
2023-11-16T13:49:13.436Z,77.55
2023-11-16T13:51:41.937Z,77.21
2023-11-16T13:54:11.004Z,77.14
2023-11-16T13:56:41.110Z,77.08
2023-11-16T13:59:11.892Z,77.74
2023-11-16T14:01:44.546Z,78.34
2023-11-16T14:04:18.724Z,79.22
2023-11-16T14:06:49.129Z,80.24
2023-11-16T14:09:24.818Z,80.27
2023-11-16T14:11:54.900Z,80.53
2023-11-16T14:14:25.943Z,81.06
2023-11-16T14:17:02.566Z,81.38
2023-11-16T14:19:33.070Z,81.18
2023-11-16T14:22:02.602Z,81.24
2023-11-16T14:24:32.174Z,81.03
2023-11-16T14:27:04.174Z,81.03
2023-11-16T14:29:34.573Z,80.93
2023-11-16T14:32:11.179Z,80.97
2023-11-16T14:34:44.837Z,80.85
2023-11-16T14:37:17.162Z,80.51
2023-11-16T14:39:46.649Z,80.67
2023-11-16T14:42:15.031Z,80.80
2023-11-16T14:44:48.101Z,81.10
2023-11-16T14:47:32.468Z,81.17
2023-11-16T14:50:16.072Z,81.02
2023-11-16T14:52:45.635Z,80.69
2023-11-16T14:55:19.673Z,81.17
2023-11-16T14:57:48.922Z,80.92
2023-11-16T15:00:19.993Z,80.95
2023-11-16T15:02:48.140Z,80.98
2023-11-16T15:05:31.220Z,80.44
2023-11-16T15:08:05.101Z,80.16
2023-11-16T15:10:38.748Z,80.05
2023-11-16T15:13:08.110Z,80.24
2023-11-16T15:15:37.024Z,79.03
2023-11-16T15:18:06.701Z,79.65
2023-11-16T15:20:38.931Z,79.86
2023-11-16T15:23:10.435Z,79.83
2023-11-16T15:25:44.498Z,79.68
2023-11-16T15:28:14.051Z,79.07
2023-11-16T15:30:42.589Z,79.15
2023-11-16T15:33:13.823Z,78.70
2023-11-16T15:35:49.336Z,78.20
2023-11-16T15:38:23.801Z,78.04
2023-11-16T15:43:39.820Z,77.39
2023-11-16T15:46:20.351Z,77.48
2023-11-16T15:48:53.653Z,77.83
2023-11-16T15:51:30.128Z,78.22
2023-11-16T15:54:00.703Z,78.36
2023-11-16T15:56:34.814Z,78.65
2023-11-16T15:59:06.992Z,78.82
2023-11-16T16:01:37.622Z,78.20
2023-11-16T16:04:13.283Z,77.29
2023-11-16T16:06:45.652Z,76.84
2023-11-16T16:09:25.910Z,76.72
2023-11-16T16:11:56.613Z,75.85
2023-11-16T16:14:26.767Z,76.11
2023-11-16T16:16:55.276Z,75.73
2023-11-16T16:19:35.324Z,76.21
2023-11-16T16:22:05.577Z,76.28
2023-11-16T16:24:37.391Z,76.40
2023-11-16T16:27:09.595Z,75.91
2023-11-16T16:29:43.350Z,76.55
2023-11-16T16:32:15.171Z,75.91
2023-11-16T16:34:51.949Z,76.29
2023-11-16T16:37:24.038Z,76.12
2023-11-16T16:39:55.763Z,76.41
2023-11-16T16:42:29.077Z,76.78
2023-11-16T16:44:59.797Z,76.83
2023-11-16T16:47:29.392Z,76.73
2023-11-16T16:49:59.662Z,77.08
2023-11-16T16:52:31.930Z,76.79
2023-11-16T16:55:03.248Z,77.17
2023-11-16T16:57:32.360Z,77.14
2023-11-16T17:00:01.525Z,77.15
2023-11-16T17:02:39.149Z,77.29
2023-11-16T17:05:10.271Z,77.27
2023-11-16T17:07:39.925Z,77.10
2023-11-16T17:10:11.847Z,77.89
2023-11-16T17:15:23.437Z,78.64
2023-11-16T17:17:55.092Z,78.81
2023-11-16T17:20:29.037Z,78.68
2023-11-16T17:22:59.475Z,78.95
2023-11-16T17:25:33.519Z,79.07
2023-11-16T17:28:02.687Z,79.35
2023-11-16T17:30:33.245Z,79.34
2023-11-16T17:33:03.918Z,79.53
2023-11-16T17:35:32.586Z,79.41
2023-11-16T17:38:01.485Z,79.74
2023-11-16T17:40:33.560Z,79.74
2023-11-16T17:43:03.313Z,79.97
2023-11-16T17:45:35.326Z,79.99
2023-11-16T17:48:08.944Z,80.38
2023-11-16T17:50:38.655Z,80.38
2023-11-16T17:53:10.873Z,80.45
2023-11-16T17:55:40.048Z,80.43
2023-11-16T17:58:09.514Z,80.49
2023-11-16T18:00:41.875Z,80.54
2023-11-16T18:03:11.740Z,80.41
2023-11-16T18:05:42.174Z,80.55
2023-11-16T18:08:11.512Z,80.59
2023-11-16T18:10:46.131Z,80.79
2023-11-16T18:13:18.994Z,80.62
2023-11-16T18:15:49.747Z,80.35
2023-11-16T18:18:23.055Z,80.59
2023-11-16T18:20:53.758Z,80.39
2023-11-16T18:23:24.780Z,80.85
2023-11-16T18:25:57.550Z,80.57
2023-11-16T18:28:28.720Z,80.85
2023-11-16T18:31:01.525Z,80.85
2023-11-16T18:33:30.829Z,80.89
2023-11-16T18:36:01.762Z,80.40
2023-11-16T18:38:32.761Z,80.30
2023-11-16T18:41:02.893Z,80.73
2023-11-16T18:43:37.910Z,80.47
2023-11-16T18:46:09.220Z,80.91
2023-11-16T18:48:47.565Z,80.82
2023-11-16T18:51:16.455Z,81.19
2023-11-16T18:53:44.822Z,81.70
2023-11-16T18:56:15.553Z,81.80
2023-11-16T18:58:53.014Z,81.87
2023-11-16T19:01:23.423Z,82.29
2023-11-16T19:03:55.637Z,82.34
2023-11-16T19:06:24.184Z,82.71
2023-11-16T19:08:54.693Z,82.73
2023-11-16T19:11:23.298Z,82.95
2023-11-16T19:13:55.552Z,82.92
2023-11-16T19:16:24.253Z,83.66
2023-11-16T19:18:52.624Z,84.04
2023-11-16T19:21:23.453Z,83.43
2023-11-16T19:24:13.801Z,83.35
2023-11-16T19:27:18.525Z,83.11
2023-11-16T19:31:00.797Z,82.97
2023-11-16T19:34:05.363Z,82.63
2023-11-16T19:37:28.328Z,83.45
2023-11-16T19:40:39.078Z,83.36
2023-11-16T19:43:45.025Z,83.08
2023-11-16T19:46:17.524Z,82.74
2023-11-16T19:49:22.426Z,82.79
2023-11-16T19:52:26.921Z,82.49
2023-11-16T19:55:15.395Z,82.35
2023-11-16T19:58:01.698Z,82.76
2023-11-16T20:01:06.466Z,82.99
2023-11-16T20:04:49.674Z,82.55
2023-11-16T20:07:35.786Z,82.62
2023-11-16T20:10:42.090Z,83.01
2023-11-16T20:13:28.270Z,82.47
2023-11-16T20:15:58.546Z,81.99
2023-11-16T20:18:28.203Z,82.25
2023-11-16T20:20:59.763Z,82.32
2023-11-16T20:23:29.217Z,81.85
2023-11-16T20:25:56.751Z,81.87
2023-11-16T20:28:25.394Z,80.03
2023-11-16T20:30:53.962Z,79.88
2023-11-16T20:33:21.844Z,79.76
2023-11-16T20:35:49.549Z,80.19
2023-11-16T20:38:17.097Z,79.78
2023-11-16T20:40:44.619Z,78.96
2023-11-16T20:43:12.575Z,79.66
2023-11-16T20:45:40.059Z,79.54
2023-11-16T20:48:09.399Z,78.68
2023-11-16T20:50:36.902Z,78.55
2023-11-16T20:53:06.577Z,78.21
2023-11-16T20:55:34.090Z,78.31
2023-11-16T20:58:01.510Z,78.08
2023-11-16T21:00:29.139Z,78.08
2023-11-16T21:02:56.880Z,77.78
2023-11-16T21:05:25.046Z,77.50
2023-11-16T21:07:54.975Z,77.33
2023-11-16T21:10:23.274Z,76.71
2023-11-16T21:12:50.757Z,76.78
2023-11-16T21:15:20.498Z,76.35
2023-11-16T21:17:48.320Z,76.24
2023-11-16T21:20:17.622Z,75.89
2023-11-16T21:22:45.349Z,75.19
2023-11-16T21:25:13.593Z,75.98
2023-11-16T21:27:42.033Z,76.07
2023-11-16T21:30:13.741Z,73.82
2023-11-16T21:32:43.199Z,74.28
2023-11-16T21:35:17.510Z,72.64
2023-11-16T21:37:50.843Z,74.80
2023-11-16T21:40:21.465Z,74.72
2023-11-16T21:42:49.239Z,74.34
2023-11-16T21:45:16.765Z,75.14
2023-11-16T21:47:46.601Z,75.60
2023-11-16T21:50:16.350Z,76.15
2023-11-16T21:52:43.722Z,76.29
2023-11-16T21:55:11.506Z,76.90
2023-11-16T21:57:38.944Z,76.40
2023-11-16T22:00:08.425Z,76.57
2023-11-16T22:02:39.217Z,77.01
2023-11-16T22:05:13.324Z,75.89
2023-11-16T22:07:43.437Z,76.62
2023-11-16T22:10:13.206Z,76.70
2023-11-16T22:12:40.773Z,75.93
2023-11-16T22:15:11.160Z,76.10
2023-11-16T22:17:46.104Z,75.22
2023-11-16T22:20:18.316Z,75.48
2023-11-16T22:22:47.996Z,75.11
2023-11-16T22:25:17.007Z,75.30
2023-11-16T22:27:46.241Z,76.14
2023-11-16T22:30:19.116Z,75.80
2023-11-16T22:32:47.250Z,76.17
2023-11-16T22:35:15.704Z,76.48
2023-11-16T22:37:43.953Z,76.17
2023-11-16T22:40:12.156Z,76.35
2023-11-16T22:42:39.891Z,76.00
2023-11-16T22:45:11.508Z,76.68
2023-11-16T22:47:39.288Z,76.95
2023-11-16T22:50:10.636Z,77.42
2023-11-16T22:52:39.605Z,78.05
2023-11-16T22:55:13.870Z,78.63
2023-11-16T22:57:42.886Z,79.05
2023-11-16T23:00:32.517Z,79.79
2023-11-16T23:03:00.346Z,80.23
2023-11-16T23:05:27.951Z,80.32
2023-11-16T23:07:59.507Z,81.08
2023-11-16T23:10:26.966Z,81.58
2023-11-16T23:12:54.454Z,81.20
2023-11-16T23:15:22.910Z,80.85
2023-11-16T23:17:54.860Z,81.69
2023-11-16T23:20:34.873Z,82.57
2023-11-16T23:23:03.750Z,81.86
2023-11-16T23:25:31.758Z,81.70
2023-11-16T23:28:02.734Z,81.45
2023-11-16T23:30:30.162Z,80.93
2023-11-16T23:32:57.542Z,80.37
2023-11-16T23:35:25.121Z,79.12
2023-11-16T23:37:52.662Z,78.64
2023-11-16T23:40:20.357Z,76.24
2023-11-16T23:42:50.202Z,75.87
2023-11-16T23:45:19.079Z,75.19
2023-11-16T23:47:48.382Z,74.91
2023-11-16T23:50:15.978Z,75.04
2023-11-16T23:52:43.287Z,75.09
2023-11-16T23:55:10.970Z,76.58
2023-11-16T23:57:38.759Z,77.19
